Time;durP1;ratioP1;P1;durP2;ratioP2;P2;SDS_P1;SDS_P2;PMS_P1;PMS_P2;Temp;Humidity;BMP_temperature;BMP_pressure;BME280_temperature;BME280_humidity;BME280_pressure;Samples;Min_cycle;Max_cycle;Signal;HPM_P1;HPM_P2
2021/06/19 00:00:14;;;;;;;17.77;7.55;;;;;;;17.86;100.00;101362.25;1796286;78;21042;-84
2021/06/19 00:02:40;;;;;;;16.82;6.97;;;;;;;17.85;100.00;101358.44;1780101;78;21892;-84
2021/06/19 00:05:07;;;;;;;13.70;7.37;;;;;;;17.82;100.00;101357.66;1812237;78;20884;-84
2021/06/19 00:07:34;;;;;;;14.87;6.58;;;;;;;17.82;100.00;101353.56;1802907;78;21550;-84
2021/06/19 00:10:00;;;;;;;21.33;7.87;;;;;;;17.84;100.00;101356.27;1800940;78;21180;-84
2021/06/19 00:12:25;;;;;;;199.40;9.05;;;;;;;17.73;100.00;101335.63;1802634;78;21137;-84
2021/06/19 00:14:51;;;;;;;28.60;6.50;;;;;;;17.73;100.00;101335.63;1760331;78;20938;-84
2021/06/19 00:17:17;;;;;;;17.00;7.00;;;;;;;17.81;100.00;101345.13;1796328;78;20901;-84
2021/06/19 00:19:43;;;;;;;14.43;7.53;;;;;;;17.80;100.00;101357.16;1802665;78;20909;-84
2021/06/19 00:22:09;;;;;;;13.10;7.22;;;;;;;17.75;100.00;101357.17;1803802;78;21026;-84
2021/06/19 00:24:38;;;;;;;14.00;6.87;;;;;;;17.73;100.00;101349.27;1800722;79;20886;-84
2021/06/19 00:27:06;;;;;;;14.33;7.72;;;;;;;17.74;100.00;101348.19;1823556;78;21718;-83
2021/06/19 00:29:33;;;;;;;15.38;7.35;;;;;;;17.76;100.00;101345.16;1817903;78;21498;-83
2021/06/19 00:31:59;;;;;;;15.30;7.50;;;;;;;17.76;100.00;101342.42;1814546;78;21516;-83
2021/06/19 00:34:25;;;;;;;12.47;7.05;;;;;;;17.75;100.00;101336.72;1801363;78;21404;-83
2021/06/19 00:36:51;;;;;;;20.52;7.83;;;;;;;17.75;100.00;101336.72;1800082;78;21102;-83
2021/06/19 00:39:17;;;;;;;15.48;7.22;;;;;;;17.74;100.00;101337.84;1799646;78;21510;-83
2021/06/19 00:41:43;;;;;;;18.52;7.83;;;;;;;17.74;100.00;101346.02;1791853;78;20960;-83
2021/06/19 00:44:20;;;;;;;20.10;8.10;;;;;;;17.70;100.00;101347.92;1795672;78;21040;-84
2021/06/19 00:46:53;;;;;;;15.53;6.85;;;;;;;17.67;100.00;101349.87;1792052;78;20999;-83
2021/06/19 00:49:20;;;;;;;12.80;7.03;;;;;;;17.68;100.00;101356.97;1767468;79;21071;-84
2021/06/19 00:51:46;;;;;;;11.83;7.17;;;;;;;17.68;100.00;101350.70;1758910;80;21650;-84
2021/06/19 00:54:13;;;;;;;13.78;7.12;;;;;;;17.69;100.00;101353.13;1758413;80;21066;-84
2021/06/19 00:56:40;;;;;;;12.47;6.70;;;;;;;17.70;100.00;101354.73;1757641;80;21220;-84
2021/06/19 00:59:09;;;;;;;12.55;6.90;;;;;;;17.69;100.00;101351.77;1775209;80;21038;-84
2021/06/19 01:01:36;;;;;;;19.12;7.55;;;;;;;17.68;100.00;101346.06;1757825;80;21070;-84
2021/06/19 01:04:05;;;;;;;15.03;7.08;;;;;;;17.69;100.00;101355.85;1768241;80;21115;-84
2021/06/19 01:06:33;;;;;;;19.55;7.28;;;;;;;17.68;100.00;101360.25;1778776;80;21087;-84
2021/06/19 01:08:59;;;;;;;17.17;7.53;;;;;;;17.66;100.00;101360.52;1756882;80;22343;-84
2021/06/19 01:11:27;;;;;;;15.05;6.90;;;;;;;17.63;100.00;101358.38;1763765;80;21106;-84
2021/06/19 01:13:53;;;;;;;13.38;7.85;;;;;;;17.62;100.00;101361.41;1766062;79;21055;-84
2021/06/19 01:16:20;;;;;;;19.15;7.62;;;;;;;17.62;100.00;101374.48;1749475;80;21554;-84
2021/06/19 01:18:47;;;;;;;14.68;6.97;;;;;;;17.64;100.00;101372.25;1767822;80;21113;-84
2021/06/19 01:21:22;;;;;;;19.67;7.67;;;;;;;17.54;100.00;101350.56;1755259;80;21098;-84
2021/06/19 01:23:48;;;;;;;18.07;7.67;;;;;;;17.54;100.00;101350.56;1682541;84;21046;-84
2021/06/19 01:26:18;;;;;;;17.98;8.53;;;;;;;17.64;100.00;101374.17;1683247;85;21081;-84
2021/06/19 01:28:49;;;;;;;15.65;8.10;;;;;;;17.64;100.00;101374.98;1667664;85;21170;-84
2021/06/19 01:31:16;;;;;;;16.73;7.60;;;;;;;17.65;100.00;101373.90;1663440;85;21038;-84
2021/06/19 01:33:45;;;;;;;16.57;7.50;;;;;;;17.67;100.00;101383.94;1664970;86;21236;-84
2021/06/19 01:36:12;;;;;;;16.00;7.55;;;;;;;17.70;100.00;101378.47;1664927;86;21438;-84
2021/06/19 01:38:46;;;;;;;12.40;7.62;;;;;;;17.70;100.00;101379.27;1664581;86;21083;-84
2021/06/19 01:41:19;;;;;;;19.67;7.58;;;;;;;17.74;100.00;101382.27;1663340;86;21190;-84
2021/06/19 01:43:46;;;;;;;;;;;;;;;17.79;100.00;101375.95;1620200;88;21158;-84
2021/06/19 01:46:13;;;;;;;15.10;7.17;;;;;;;17.80;100.00;101378.97;1617806;88;20464;-84
2021/06/19 01:48:40;;;;;;;13.85;7.78;;;;;;;17.84;100.00;101373.98;1607598;88;21655;-84
2021/06/19 01:51:11;;;;;;;18.60;7.20;;;;;;;17.84;100.00;101373.98;1599560;88;21029;-84
2021/06/19 01:53:46;;;;;;;17.57;7.65;;;;;;;17.80;100.00;101367.50;1576156;90;21206;-84
2021/06/19 01:56:15;;;;;;;16.42;7.70;;;;;;;17.80;100.00;101367.50;1577949;90;21739;-84
2021/06/19 01:58:41;;;;;;;16.55;7.47;;;;;;;17.94;100.00;101379.87;1582583;90;21189;-84
2021/06/19 02:03:37;;;;;;;17.02;7.15;;;;;;;18.00;100.00;101384.20;1538799;91;21229;-84
2021/06/19 02:06:05;;;;;;;12.60;7.10;;;;;;;17.95;100.00;101368.44;1541152;91;21171;-84
2021/06/19 02:08:32;;;;;;;15.10;6.90;;;;;;;18.03;100.00;101382.78;1541109;91;21102;-84
2021/06/19 02:10:59;;;;;;;20.37;7.00;;;;;;;18.05;100.00;101385.48;1540585;91;21173;-84
2021/06/19 02:13:26;;;;;;;13.80;6.87;;;;;;;18.08;100.00;101387.62;1549742;90;21059;-84
2021/06/19 02:15:54;;;;;;;13.88;6.92;;;;;;;18.11;100.00;101385.67;1577409;89;21584;-84
2021/06/19 02:18:20;;;;;;;16.00;6.70;;;;;;;18.14;100.00;101390.55;1578824;89;21994;-84
2021/06/19 02:20:52;;;;;;;10.65;6.42;;;;;;;18.19;100.00;101390.25;1590409;89;21249;-85
2021/06/19 02:23:15;;;;;;;12.60;6.20;;;;;;;18.25;100.00;101387.71;1604118;87;21639;-84
2021/06/19 02:25:41;;;;;;;12.70;6.97;;;;;;;18.34;100.00;101385.95;1609554;86;21089;-85
2021/06/19 02:28:10;;;;;;;13.88;6.28;;;;;;;18.43;100.00;101380.66;1613868;87;20910;-85
2021/06/19 02:30:40;;;;;;;12.28;5.70;;;;;;;18.51;100.00;101382.74;1620742;87;21171;-85
2021/06/19 02:33:07;;;;;;;13.48;5.62;;;;;;;18.59;100.00;101377.44;1626083;86;21046;-84
2021/06/19 02:35:37;;;;;;;17.45;5.40;;;;;;;18.69;100.00;101377.03;1625023;86;21104;-85
2021/06/19 02:38:04;;;;;;;17.23;5.08;;;;;;;18.78;100.00;101379.37;1606108;86;21137;-85
2021/06/19 02:40:32;;;;;;;12.82;4.80;;;;;;;18.88;100.00;101378.41;1648483;85;20979;-85
2021/06/19 02:42:59;;;;;;;10.43;5.22;;;;;;;18.97;100.00;101378.83;1661504;84;22558;-85
2021/06/19 02:45:25;;;;;;;9.60;4.25;;;;;;;19.09;100.00;101380.27;1635406;84;21682;-85
2021/06/19 02:47:54;;;;;;;9.75;4.55;;;;;;;19.19;100.00;101381.48;1635363;84;21132;-85
2021/06/19 02:50:25;;;;;;;12.95;4.87;;;;;;;19.20;100.00;101378.99;1651136;83;21011;-85
2021/06/19 02:52:52;;;;;;;8.53;4.00;;;;;;;19.22;100.00;101383.62;1696070;82;21022;-85
2021/06/19 02:55:23;;;;;;;12.07;4.28;;;;;;;19.20;100.00;101379.80;1683055;82;21164;-85
2021/06/19 02:57:49;;;;;;;14.87;3.95;;;;;;;19.21;100.00;101391.56;1691970;84;21059;-85
2021/06/19 03:00:18;;;;;;;7.30;3.62;;;;;;;19.17;100.00;101397.35;1693994;81;20971;-85
2021/06/19 03:02:44;;;;;;;9.20;3.83;;;;;;;19.12;100.00;101381.88;1732607;81;22291;-85
2021/06/19 03:05:13;;;;;;;13.65;3.90;;;;;;;19.11;100.00;101388.98;1726926;81;21121;-85
2021/06/19 03:07:40;;;;;;;11.53;3.75;;;;;;;19.10;100.00;101394.20;1727548;81;21062;-85
2021/06/19 03:10:10;;;;;;;7.70;4.12;;;;;;;19.10;100.00;101395.01;1739878;81;20956;-85
2021/06/19 03:12:36;;;;;;;7.75;3.75;;;;;;;19.12;100.00;101391.96;1729285;81;21661;-85
2021/06/19 03:15:05;;;;;;;10.13;3.33;;;;;;;19.15;100.00;101388.63;1726160;81;20918;-84
2021/06/19 03:17:31;;;;;;;12.68;3.72;;;;;;;19.18;100.00;101389.44;1726078;81;21093;-85
2021/06/19 03:19:57;;;;;;;8.10;3.45;;;;;;;19.20;100.00;101392.66;1744930;81;21757;-84
2021/06/19 03:22:23;;;;;;;8.60;3.02;;;;;;;19.25;100.00;101389.84;1732249;81;20915;-84
2021/06/19 03:24:49;;;;;;;10.15;3.05;;;;;;;19.44;100.00;101387.89;1726537;81;20887;-84
2021/06/19 03:27:17;;;;;;;8.23;2.95;;;;;;;19.57;100.00;101389.59;1733912;81;21660;-85
2021/06/19 03:29:44;;;;;;;7.33;2.60;;;;;;;19.62;100.00;101388.94;1732918;81;21021;-85
2021/06/19 03:32:11;;;;;;;7.92;2.52;;;;;;;19.64;100.00;101390.80;1726281;81;21936;-85
2021/06/19 03:34:38;;;;;;;7.87;2.70;;;;;;;19.71;100.00;101392.63;1727530;81;21011;-85
2021/06/19 03:37:05;;;;;;;9.40;2.35;;;;;;;19.82;100.00;101396.53;1719632;82;21045;-85
2021/06/19 03:39:34;;;;;;;11.45;2.60;;;;;;;19.94;100.00;101379.89;1726249;81;21030;-85
2021/06/19 03:42:01;;;;;;;9.03;2.30;;;;;;;20.18;100.00;101376.94;1741307;81;21506;-85
2021/06/19 03:44:27;;;;;;;9.38;2.33;;;;;;;20.66;100.00;101381.14;1748689;81;21131;-85
2021/06/19 03:46:54;;;;;;;11.35;2.45;;;;;;;21.16;100.00;101379.69;1745654;81;21023;-85
2021/06/19 03:49:21;;;;;;;12.50;3.12;;;;;;;21.39;100.00;101385.19;1730022;81;21630;-84
2021/06/19 03:51:48;;;;;;;13.50;3.83;;;;;;;21.48;100.00;101383.30;1741200;81;21497;-85
2021/06/19 03:54:15;;;;;;;8.73;3.42;;;;;;;21.54;100.00;101376.56;1726185;81;21037;-85
2021/06/19 03:56:42;;;;;;;14.47;4.33;;;;;;;21.49;100.00;101373.38;1728199;81;21086;-84
2021/06/19 03:59:08;;;;;;;15.35;4.45;;;;;;;21.47;100.00;101373.44;1726000;81;21093;-85
2021/06/19 04:01:34;;;;;;;14.70;4.15;;;;;;;21.25;100.00;101376.44;1779822;78;21122;-85
2021/06/19 04:04:00;;;;;;;17.07;3.83;;;;;;;21.03;100.00;101380.00;1798737;78;21071;-85
2021/06/19 04:06:26;;;;;;;17.92;3.83;;;;;;;20.90;100.00;101385.53;1795600;79;21664;-84
2021/06/19 04:08:53;;;;;;;13.38;3.98;;;;;;;20.72;100.00;101385.95;1790296;78;21168;-84
2021/06/19 04:11:19;;;;;;;14.30;4.03;;;;;;;20.48;100.00;101384.25;1796703;79;21058;-84
2021/06/19 04:13:45;;;;;;;12.43;3.60;;;;;;;20.26;100.00;101389.08;1785130;79;21015;-84
2021/06/19 04:16:11;;;;;;;13.72;3.60;;;;;;;20.09;100.00;101379.30;1778140;78;20879;-84
2021/06/19 04:18:38;;;;;;;9.50;3.45;;;;;;;19.99;100.00;101380.33;1780253;77;21026;-84
2021/06/19 04:21:06;;;;;;;10.38;3.40;;;;;;;19.90;100.00;101377.48;1787247;78;21055;-84
2021/06/19 04:23:33;;;;;;;7.92;3.98;;;;;;;19.83;100.00;101385.30;1790058;78;21006;-84
2021/06/19 04:26:00;;;;;;;10.50;3.12;;;;;;;19.78;100.00;101377.74;1803204;78;21538;-86
2021/06/19 04:28:25;;;;;;;19.30;3.27;;;;;;;19.66;100.00;101376.87;1785592;78;20991;-86
2021/06/19 04:30:53;;;;;;;14.30;3.27;;;;;;;19.49;100.00;101373.30;1816827;78;21482;-85
2021/06/19 04:33:19;;;;;;;15.05;3.02;;;;;;;19.36;100.00;101379.00;1798519;78;21690;-85
2021/06/19 04:35:45;;;;;;;7.72;2.17;;;;;;;19.52;100.00;101376.24;1804648;78;20864;-85
2021/06/19 04:38:11;;;;;;;7.30;2.17;;;;;;;19.80;100.00;101375.52;1784884;77;21074;-85
2021/06/19 04:43:11;;;;;;;7.83;2.50;;;;;;;20.29;100.00;101373.97;1793797;77;21044;-85
2021/06/19 04:45:39;;;;;;;8.25;3.12;;;;;;;20.55;100.00;101379.18;1802744;78;21067;-85
2021/06/19 04:48:07;;;;;;;8.93;2.85;;;;;;;20.76;100.00;101375.98;1785199;78;21026;-86
2021/06/19 04:50:36;;;;;;;17.17;4.67;;;;;;;20.97;100.00;101371.66;1793828;78;21051;-86
2021/06/19 04:53:03;;;;;;;18.23;5.45;;;;;;;21.11;100.00;101367.47;1799239;77;21473;-86
2021/06/19 04:55:31;;;;;;;18.12;6.20;;;;;;;21.32;100.00;101363.11;1788043;78;20995;-86
2021/06/19 04:57:58;;;;;;;14.68;4.42;;;;;;;21.42;100.00;101359.31;1802360;78;21503;-87
2021/06/19 05:00:27;;;;;;;11.97;3.95;;;;;;;21.53;100.00;101348.86;1795520;78;21451;-86
2021/06/19 05:02:55;;;;;;;5.58;3.10;;;;;;;21.74;100.00;101352.69;1801169;78;21011;-87
2021/06/19 05:05:23;;;;;;;6.42;3.37;;;;;;;22.06;100.00;101353.98;1802587;78;21038;-87
2021/06/19 05:07:50;;;;;;;8.48;2.80;;;;;;;22.49;100.00;101358.80;1791655;78;21527;-87
2021/06/19 05:10:16;;;;;;;14.20;2.83;;;;;;;22.73;100.00;101366.56;1795960;78;21043;-88
2021/06/19 05:12:45;;;;;;;8.70;2.80;;;;;;;22.89;100.00;101367.70;1799695;78;20967;-87
2021/06/19 05:15:15;;;;;;;10.08;2.85;;;;;;;23.37;100.00;101361.17;1758988;78;21154;-87
2021/06/19 05:17:42;;;;;;;4.58;2.25;;;;;;;24.42;100.00;101366.48;1795200;78;20963;-86
2021/06/19 05:20:08;;;;;;;7.22;2.42;;;;;;;24.92;100.00;101365.59;1796258;78;20936;-87
2021/06/19 05:22:34;;;;;;;5.28;2.00;;;;;;;24.96;100.00;101369.86;1751710;79;21871;-88
2021/06/19 05:25:02;;;;;;;6.47;1.87;;;;;;;25.51;100.00;101381.09;1743227;80;21097;-87
2021/06/19 05:27:28;;;;;;;3.55;1.65;;;;;;;26.10;100.00;101372.19;1743193;80;20963;-90
2021/06/19 05:29:54;;;;;;;5.17;1.70;;;;;;;26.75;100.00;101377.73;1760180;80;20891;-88
2021/06/19 05:32:22;;;;;;;5.67;1.57;;;;;;;27.59;100.00;101363.81;1747274;80;20940;-87
2021/06/19 05:34:48;;;;;;;4.70;1.45;;;;;;;28.48;100.00;101364.59;1760038;80;22606;-87
2021/06/19 05:37:14;;;;;;;7.30;1.72;;;;;;;28.86;100.00;101361.61;1731922;80;20910;-87
2021/06/19 05:39:40;;;;;;;8.20;1.85;;;;;;;29.23;100.00;101353.39;1751398;79;20880;-86
2021/06/19 05:42:06;;;;;;;5.42;2.05;;;;;;;29.47;100.00;101358.58;1758949;79;20903;-84
2021/06/19 05:44:32;;;;;;;5.47;1.80;;;;;;;29.55;100.00;101351.17;1756868;79;21013;-84
2021/06/19 05:46:58;;;;;;;9.08;1.60;;;;;;;29.64;100.00;101355.92;1760208;80;21938;-84
2021/06/19 05:49:24;;;;;;;2.95;1.50;;;;;;;29.94;100.00;101357.38;1758193;79;20892;-84
2021/06/19 05:51:50;;;;;;;11.05;1.95;;;;;;;30.32;100.00;101360.55;1759001;80;20866;-83
2021/06/19 05:54:16;;;;;;;5.45;2.00;;;;;;;30.15;100.00;101355.53;1774387;78;20837;-84
2021/06/19 05:56:42;;;;;;;6.65;1.60;;;;;;;30.42;100.00;101361.89;1790611;78;20837;-84
2021/06/19 05:59:08;;;;;;;7.85;2.25;;;;;;;30.92;99.27;101354.77;1810385;79;21714;-84
2021/06/19 06:01:34;;;;;;;2.33;1.55;;;;;;;31.23;100.00;101349.30;1811099;79;20892;-83
2021/06/19 06:04:00;;;;;;;13.85;2.37;;;;;;;31.67;94.05;101347.92;1806286;79;20942;-84
2021/06/19 06:06:26;;;;;;;7.53;2.00;;;;;;;31.67;89.71;101350.72;1798525;78;20999;-83
2021/06/19 06:08:52;;;;;;;6.50;1.80;;;;;;;31.66;88.45;101349.13;1791347;78;21050;-84
2021/06/19 06:11:18;;;;;;;7.90;1.60;;;;;;;31.81;80.84;101352.02;1801878;78;21660;-84
2021/06/19 06:13:45;;;;;;;5.35;1.80;;;;;;;31.93;77.88;101349.55;1811596;79;20955;-84
2021/06/19 06:16:11;;;;;;;5.30;1.65;;;;;;;31.91;70.92;101354.10;1789776;79;21181;-83
2021/06/19 06:18:37;;;;;;;7.00;2.10;;;;;;;31.88;71.33;101353.45;1799394;78;21565;-84
2021/06/19 06:21:04;;;;;;;4.25;1.60;;;;;;;31.64;69.00;101348.70;1798408;78;21094;-83
2021/06/19 06:23:31;;;;;;;8.13;1.85;;;;;;;31.66;76.53;101350.52;1813435;79;21172;-84
2021/06/19 06:25:57;;;;;;;9.60;2.20;;;;;;;31.96;71.04;101356.53;1798732;78;20979;-83
2021/06/19 06:28:24;;;;;;;4.90;1.57;;;;;;;31.54;73.54;101342.46;1790462;78;20954;-83
2021/06/19 06:30:50;;;;;;;2.30;1.45;;;;;;;31.74;68.38;101350.56;1807707;79;21082;-84
2021/06/19 06:33:19;;;;;;;11.22;2.00;;;;;;;32.05;71.01;101349.22;1803583;79;20975;-84
2021/06/19 06:35:45;;;;;;;5.67;2.05;;;;;;;32.36;69.90;101343.62;1799968;79;21879;-84
2021/06/19 06:38:11;;;;;;;6.25;1.87;;;;;;;32.62;67.21;101339.78;1801520;79;20876;-83
2021/06/19 06:40:36;;;;;;;8.33;2.00;;;;;;;32.62;65.78;101336.16;1800187;78;21549;-84
2021/06/19 06:43:03;;;;;;;10.98;1.60;;;;;;;32.88;64.92;101329.47;1788213;78;20943;-84
2021/06/19 06:45:28;;;;;;;13.10;1.70;;;;;;;32.93;60.10;101334.07;1799819;79;21034;-83
2021/06/19 06:47:54;;;;;;;8.58;1.80;;;;;;;32.39;57.16;101335.08;1809972;79;21166;-83
2021/06/19 06:50:21;;;;;;;7.28;1.40;;;;;;;32.41;58.81;101328.48;1803620;78;20872;-83
2021/06/19 06:52:47;;;;;;;5.08;1.47;;;;;;;32.64;59.29;101321.23;1806484;79;21981;-83
2021/06/19 06:55:13;;;;;;;13.15;1.60;;;;;;;32.54;58.12;101320.01;1809271;79;20845;-83
2021/06/19 06:57:39;;;;;;;6.40;1.87;;;;;;;32.58;59.19;101323.59;1809355;79;21002;-83
2021/06/19 07:00:07;;;;;;;6.10;1.60;;;;;;;32.59;56.38;101305.66;1799465;78;21676;-84
2021/06/19 07:02:33;;;;;;;3.20;1.40;;;;;;;32.50;57.89;101296.28;1784449;78;21006;-83
2021/06/19 07:04:59;;;;;;;10.58;1.67;;;;;;;32.35;59.23;101305.73;1789933;78;20883;-85
2021/06/19 07:07:25;;;;;;;9.05;1.57;;;;;;;31.99;61.15;101306.95;1792628;79;20934;-85
2021/06/19 07:09:51;;;;;;;8.48;1.62;;;;;;;31.51;59.83;101305.62;1808894;79;21050;-84
2021/06/19 07:12:17;;;;;;;4.25;1.25;;;;;;;30.08;66.66;101303.98;1810295;79;21801;-85
2021/06/19 07:14:43;;;;;;;7.90;1.85;;;;;;;30.08;66.66;101303.98;1749521;79;21033;-84
2021/06/19 07:17:10;;;;;;;13.43;1.70;;;;;;;29.98;71.48;101333.23;1800973;79;20888;-84
2021/06/19 07:19:44;;;;;;;4.72;1.10;;;;;;;30.51;71.86;101320.67;1809209;79;21138;-84
2021/06/19 07:22:10;;;;;;;4.05;1.62;;;;;;;31.11;67.89;101314.78;1743612;81;21462;-84
2021/06/19 07:24:36;;;;;;;5.08;1.50;;;;;;;31.99;64.30;101309.75;1735064;80;21124;-85
2021/06/19 07:27:04;;;;;;;11.60;1.82;;;;;;;32.35;62.15;101306.53;1741100;81;21019;-84
2021/06/19 07:29:30;;;;;;;12.20;1.90;;;;;;;32.48;60.86;101288.09;1718645;80;21042;-85
2021/06/19 07:31:56;;;;;;;5.42;1.85;;;;;;;31.94;61.93;101301.74;1700613;83;21486;-84
2021/06/19 07:34:22;;;;;;;5.05;1.35;;;;;;;31.66;62.70;101293.98;1696460;82;20863;-84
2021/06/19 07:36:48;;;;;;;4.75;1.45;;;;;;;31.79;63.86;101290.27;1693423;83;21522;-85
2021/06/19 07:39:15;;;;;;;6.95;1.70;;;;;;;32.20;65.27;101280.38;1705538;82;20892;-84
2021/06/19 07:41:41;;;;;;;6.97;1.60;;;;;;;32.58;62.66;101274.75;1709520;82;21550;-84
2021/06/19 07:44:08;;;;;;;18.95;1.72;;;;;;;32.99;61.73;101271.67;1687894;82;21039;-84
2021/06/19 07:46:34;;;;;;;4.33;1.90;;;;;;;33.27;57.01;101279.28;1696260;83;21189;-84
2021/06/19 07:49:02;;;;;;;8.65;1.65;;;;;;;33.11;57.27;101272.67;1699728;82;21349;-84
2021/06/19 07:51:29;;;;;;;8.80;1.75;;;;;;;33.27;58.14;101276.48;1699770;82;21018;-84
2021/06/19 07:53:55;;;;;;;8.98;1.90;;;;;;;33.73;57.38;101272.85;1695503;83;21088;-85
2021/06/19 07:56:21;;;;;;;6.17;1.40;;;;;;;33.70;55.77;101270.86;1702355;82;20955;-85
2021/06/19 07:58:46;;;;;;;6.00;1.60;;;;;;;33.74;56.00;101262.45;1696686;83;20926;-85
2021/06/19 08:01:13;;;;;;;8.85;1.77;;;;;;;34.08;55.04;101260.00;1656311;86;21216;-84
2021/06/19 08:03:38;;;;;;;7.25;1.62;;;;;;;34.01;49.95;101254.41;1697381;83;21565;-84
2021/06/19 08:06:05;;;;;;;5.97;1.67;;;;;;;33.63;53.60;101254.91;1694840;83;20910;-84
2021/06/19 08:08:31;;;;;;;12.90;1.57;;;;;;;33.80;52.85;101267.86;1679056;83;21583;-84
2021/06/19 08:10:56;;;;;;;4.10;1.32;;;;;;;33.59;50.82;101277.06;1702032;82;20947;-84
2021/06/19 08:13:22;;;;;;;7.47;1.30;;;;;;;33.17;52.59;101273.08;1694994;83;21164;-84
2021/06/19 08:15:48;;;;;;;7.53;1.45;;;;;;;33.01;54.43;101268.69;1697415;82;20898;-85
2021/06/19 08:18:14;;;;;;;7.95;1.50;;;;;;;32.80;54.81;101288.19;1705144;80;20991;-84
2021/06/19 08:20:40;;;;;;;10.78;1.57;;;;;;;32.61;54.17;101272.57;1763720;80;21557;-85
2021/06/19 08:23:06;;;;;;;9.75;1.37;;;;;;;32.76;56.26;101280.38;1769871;80;20853;-84
2021/06/19 08:25:32;;;;;;;6.47;1.90;;;;;;;32.86;55.72;101286.59;1773667;80;21959;-85
2021/06/19 08:27:58;;;;;;;10.40;2.02;;;;;;;32.82;54.62;101270.41;1755322;80;21026;-84
2021/06/19 08:30:25;;;;;;;8.55;1.70;;;;;;;32.87;57.16;101270.03;1755133;80;20987;-85
2021/06/19 08:32:50;;;;;;;13.15;2.00;;;;;;;32.97;57.25;101265.08;1734870;80;21197;-84
2021/06/19 08:35:16;;;;;;;10.55;2.25;;;;;;;33.03;54.81;101252.91;1767200;80;20974;-84
2021/06/19 08:37:42;;;;;;;11.05;1.77;;;;;;;33.08;55.72;101261.51;1764115;80;21080;-84
2021/06/19 08:40:09;;;;;;;9.33;1.47;;;;;;;33.01;55.58;101257.52;1763826;80;20876;-84
2021/06/19 08:42:36;;;;;;;11.48;1.70;;;;;;;32.87;58.44;101272.03;1775550;80;21067;-84
2021/06/19 08:45:05;;;;;;;6.55;1.47;;;;;;;32.71;54.69;101261.22;1754368;80;21023;-84
2021/06/19 08:47:37;;;;;;;10.85;1.57;;;;;;;32.50;55.87;101267.55;1757207;80;21538;-84
2021/06/19 08:50:07;;;;;;;8.43;1.35;;;;;;;32.44;56.09;101269.09;1742398;80;21350;-84
2021/06/19 08:52:35;;;;;;;7.25;1.50;;;;;;;32.33;55.67;101271.27;1749469;80;21045;-84
2021/06/19 08:55:03;;;;;;;7.33;1.30;;;;;;;32.05;55.32;101269.14;1750171;80;21106;-83
2021/06/19 08:57:29;;;;;;;8.68;1.40;;;;;;;32.11;56.21;101255.62;1777134;80;21115;-83
2021/06/19 08:59:55;;;;;;;5.00;1.60;;;;;;;31.83;56.66;101274.39;1749650;80;21743;-84
2021/06/19 09:02:26;;;;;;;5.05;1.55;;;;;;;31.68;62.31;101277.08;1746380;80;21081;-85
2021/06/19 09:05:06;;;;;;;5.47;1.65;;;;;;;31.75;63.17;101276.92;1723391;81;21030;-84
2021/06/19 09:07:50;;;;;;;7.53;1.65;;;;;;;32.17;66.71;101279.76;1733875;82;21026;-85
2021/06/19 09:10:34;;;;;;;5.55;2.25;;;;;;;32.11;64.28;101271.76;1679023;83;21119;-88
2021/06/19 09:13:07;;;;;;;8.40;1.30;;;;;;;32.43;68.15;101270.30;1692325;84;21086;-84
2021/06/19 09:15:50;;;;;;;8.78;1.50;;;;;;;32.51;61.32;101270.56;1687193;83;21333;-85
2021/06/19 09:18:24;;;;;;;4.75;1.20;;;;;;;31.95;63.73;101260.73;1685884;83;28863;-84
2021/06/19 09:21:03;;;;;;;10.43;1.40;;;;;;;31.95;63.73;101260.73;1688579;84;21054;-84
2021/06/19 09:23:36;;;;;;;7.67;1.87;;;;;;;31.81;61.47;101274.77;1684634;83;21158;-84
2021/06/19 09:26:26;;;;;;;9.40;2.02;;;;;;;31.56;66.37;101267.64;1756827;80;21007;-85
2021/06/19 09:29:09;;;;;;;21.10;1.80;;;;;;;31.67;64.79;101267.70;1700849;83;21223;-85
2021/06/19 09:31:52;;;;;;;10.70;1.70;;;;;;;31.35;63.56;101272.44;1675987;84;21129;-85
2021/06/19 09:34:25;;;;;;;14.60;1.90;;;;;;;31.38;66.97;101266.70;1641950;85;21661;-84
2021/06/19 09:37:03;;;;;;;11.88;1.85;;;;;;;31.21;66.59;101252.82;1598107;87;21189;-85
2021/06/19 09:39:32;;;;;;;4.95;1.57;;;;;;;31.15;66.74;101251.55;1591146;87;20994;-85
2021/06/19 09:42:03;;;;;;;6.78;1.87;;;;;;;30.88;70.06;101254.50;1594676;87;21099;-84
2021/06/19 09:44:42;;;;;;;10.03;2.12;;;;;;;31.00;73.22;101260.37;1573514;89;21611;-84
2021/06/19 09:47:11;;;;;;;8.98;1.82;;;;;;;30.87;75.82;101254.89;1595405;89;21133;-85
2021/06/19 09:49:40;;;;;;;10.50;1.80;;;;;;;30.71;73.45;101255.91;1620122;88;21030;-85
2021/06/19 09:52:11;;;;;;;6.47;1.70;;;;;;;30.41;72.36;101260.72;1563635;89;21512;-84
2021/06/19 09:54:40;;;;;;;7.70;1.75;;;;;;;30.24;74.27;101251.00;1591371;89;21199;-84
2021/06/19 09:57:14;;;;;;;19.20;1.90;;;;;;;29.99;78.69;101262.55;1585131;89;21557;-86
2021/06/19 09:59:42;;;;;;;11.30;1.67;;;;;;;29.95;85.90;101249.80;1583290;88;21066;-86
2021/06/19 10:02:30;;;;;;;7.28;1.80;;;;;;;30.10;88.46;101251.59;1575771;89;21660;-86
2021/06/19 10:04:57;;;;;;;9.65;1.90;;;;;;;30.20;81.29;101254.28;1600580;88;21629;-85
2021/06/19 10:07:26;;;;;;;12.25;1.98;;;;;;;29.92;81.09;101250.55;1595746;89;21103;-83
2021/06/19 10:09:56;;;;;;;11.70;2.02;;;;;;;29.82;88.09;101236.70;1548985;91;21533;-84
2021/06/19 10:12:31;;;;;;;11.95;1.70;;;;;;;29.81;87.92;101241.47;1545511;92;21122;-85
2021/06/19 10:15:07;;;;;;;8.03;1.90;;;;;;;29.74;86.98;101239.98;1561589;90;21164;-85
2021/06/19 10:17:45;;;;;;;17.62;2.17;;;;;;;29.80;94.16;101237.69;1581200;88;21161;-85
2021/06/19 10:20:17;;;;;;;12.33;1.98;;;;;;;29.80;90.62;101225.19;1569351;89;21205;-85
2021/06/19 10:22:45;;;;;;;13.72;1.92;;;;;;;29.90;97.88;101239.01;1569253;90;21114;-85
2021/06/19 10:25:15;;;;;;;7.55;2.10;;;;;;;29.92;91.67;101236.66;1547033;89;21092;-84
2021/06/19 10:27:47;;;;;;;18.75;2.10;;;;;;;29.82;86.65;101233.33;1599399;88;21204;-83
2021/06/19 10:30:15;;;;;;;8.75;1.87;;;;;;;29.63;87.12;101223.75;1602746;89;21186;-83
2021/06/19 10:32:50;;;;;;;10.63;2.87;;;;;;;29.34;87.30;101227.45;1589442;88;21079;-84
2021/06/19 10:35:20;;;;;;;18.20;2.12;;;;;;;29.30;95.28;101232.16;1587580;88;21508;-85
2021/06/19 10:37:49;;;;;;;9.18;2.08;;;;;;;29.39;94.86;101221.58;1549113;91;21181;-86
2021/06/19 10:40:25;;;;;;;7.33;1.77;;;;;;;29.40;93.22;101227.34;1542829;89;21752;-85
2021/06/19 10:42:55;;;;;;;13.00;2.25;;;;;;;29.27;91.74;101230.13;1597019;88;21120;-86
2021/06/19 10:45:32;;;;;;;11.88;1.85;;;;;;;29.30;97.36;101218.27;1596403;88;21939;-86
2021/06/19 10:48:05;;;;;;;8.35;2.47;;;;;;;29.35;98.03;101220.70;1596430;88;21195;-87
2021/06/19 10:50:31;;;;;;;;;;;;;;;29.40;99.79;101232.10;1599291;88;21058;-86
2021/06/19 10:53:11;;;;;;;17.30;3.72;;;;;;;29.50;97.58;101231.45;1596368;88;20214;-86
2021/06/19 10:55:52;;;;;;;16.87;2.67;;;;;;;29.44;96.83;101224.61;1577160;88;21103;-86
2021/06/19 10:58:35;;;;;;;5.95;1.77;;;;;;;29.51;97.78;101239.22;1616153;87;22137;-87
2021/06/19 11:01:04;;;;;;;13.35;2.92;;;;;;;29.45;95.63;101225.44;1615047;87;21124;-86
2021/06/19 11:03:49;;;;;;;9.28;2.10;;;;;;;29.47;100.00;101228.03;1615218;87;21069;-85
2021/06/19 11:06:30;;;;;;;10.65;2.37;;;;;;;29.54;96.83;101230.93;1624467;86;21191;-86
2021/06/19 11:09:20;;;;;;;6.33;1.80;;;;;;;29.42;97.02;101237.50;1643840;86;22442;-87
2021/06/19 11:12:02;;;;;;;13.70;1.95;;;;;;;29.31;100.00;101229.58;1649625;85;21032;-87
2021/06/19 11:14:46;;;;;;;12.53;2.57;;;;;;;29.37;100.00;101216.19;1629085;85;21044;-87
2021/06/19 11:17:25;;;;;;;12.05;2.33;;;;;;;29.47;100.00;101234.17;1655400;84;21541;-87
2021/06/19 11:19:59;;;;;;;11.35;2.50;;;;;;;29.53;100.00;101207.68;1709554;83;21531;-87
2021/06/19 11:22:46;;;;;;;11.45;2.60;;;;;;;29.58;100.00;101200.42;1705853;83;21069;-87
2021/06/19 11:25:51;;;;;;;8.13;2.90;;;;;;;29.53;100.00;101214.06;1691504;83;22409;-87
2021/06/19 11:28:29;;;;;;;18.75;3.33;;;;;;;29.49;100.00;101212.39;1594547;88;21625;-89